Time;durP1;ratioP1;P1;durP2;ratioP2;P2;SDS_P1;SDS_P2;PMS_P1;PMS_P2;Temp;Humidity;BMP_temperature;BMP_pressure;BME280_temperature;BME280_humidity;BME280_pressure;Samples;Min_cycle;Max_cycle;Signal;HPM_P1;HPM_P2
2021/12/18 00:02:19;;;;;;;37.90;23.93;;;8.60;99.90;;;;;;5114572;28;20496;-75
2021/12/18 00:04:47;;;;;;;38.03;24.50;;;8.60;99.90;;;;;;5114511;28;20439;-75
2021/12/18 00:07:14;;;;;;;38.03;26.23;;;8.70;99.90;;;;;;5114685;28;20443;-75
2021/12/18 00:09:41;;;;;;;38.00;25.17;;;8.60;99.90;;;;;;5114605;28;20490;-76
2021/12/18 00:12:09;;;;;;;41.87;27.23;;;8.70;99.90;;;;;;5114172;28;20458;-75
2021/12/18 00:14:36;;;;;;;48.80;30.03;;;8.70;99.90;;;;;;5114370;28;20538;-75
2021/12/18 00:17:03;;;;;;;44.00;28.37;;;8.70;99.90;;;;;;5114044;28;20431;-75
2021/12/18 00:19:30;;;;;;;40.00;25.70;;;8.70;99.90;;;;;;5114280;28;20442;-75
2021/12/18 00:21:58;;;;;;;42.93;28.87;;;8.70;99.90;;;;;;5113944;28;20477;-75
2021/12/18 00:24:25;;;;;;;40.23;26.10;;;8.80;99.90;;;;;;5116390;28;20453;-75
2021/12/18 00:26:53;;;;;;;47.40;27.77;;;8.80;99.90;;;;;;5118258;28;20451;-75
2021/12/18 00:29:20;;;;;;;43.10;26.37;;;8.80;99.90;;;;;;5117655;28;20515;-75
2021/12/18 00:31:47;;;;;;;40.33;26.50;;;8.80;99.90;;;;;;5118357;28;20497;-75
2021/12/18 00:34:14;;;;;;;42.57;25.70;;;8.80;99.90;;;;;;5118123;28;20442;-75
2021/12/18 00:36:40;;;;;;;43.10;27.87;;;8.80;99.90;;;;;;5118243;28;20455;-76
2021/12/18 00:39:08;;;;;;;39.67;27.47;;;8.80;99.90;;;;;;5118113;28;20794;-76
2021/12/18 00:41:48;;;;;;;42.13;27.27;;;8.80;99.90;;;;;;5118081;27;20976;-75
2021/12/18 00:44:16;;;;;;;46.10;29.93;;;8.90;99.90;;;;;;5118692;28;20434;-75
2021/12/18 00:46:45;;;;;;;40.07;27.03;;;8.90;99.90;;;;;;5119014;28;20447;-76
2021/12/18 00:49:14;;;;;;;51.57;31.63;;;8.80;99.90;;;;;;5117397;28;20478;-76
2021/12/18 00:51:41;;;;;;;50.07;30.73;;;8.90;99.90;;;;;;5117490;28;20466;-75
2021/12/18 00:54:10;;;;;;;48.37;29.90;;;8.90;99.90;;;;;;5116960;28;20817;-75
2021/12/18 00:56:36;;;;;;;47.03;28.60;;;8.90;99.90;;;;;;5116762;28;20427;-75
2021/12/18 00:59:04;;;;;;;48.40;32.37;;;8.90;99.90;;;;;;5116962;28;20949;-75
2021/12/18 01:01:32;;;;;;;50.20;29.40;;;8.90;99.90;;;;;;5116911;28;20478;-75
2021/12/18 01:03:59;;;;;;;49.63;31.20;;;8.90;99.90;;;;;;5116752;28;20991;-75
2021/12/18 01:06:26;;;;;;;45.60;28.57;;;8.90;99.90;;;;;;5117006;28;20443;-75
2021/12/18 01:08:56;;;;;;;49.70;30.63;;;8.90;99.90;;;;;;5116721;28;20471;-75
2021/12/18 01:11:40;;;;;;;46.37;29.10;;;8.90;99.90;;;;;;5116397;28;21027;-75
2021/12/18 01:14:34;;;;;;;44.80;27.37;;;8.90;99.90;;;;;;5117062;28;20523;-75
2021/12/18 01:22:48;;;;;;;49.03;29.13;;;9.00;99.90;;;;;;5117005;28;20445;-76
2021/12/18 01:25:17;;;;;;;49.40;30.03;;;9.00;99.90;;;;;;5116640;28;20419;-75
2021/12/18 01:27:45;;;;;;;45.77;30.30;;;9.00;99.90;;;;;;5116632;28;20843;-76
2021/12/18 01:30:14;;;;;;;48.37;29.57;;;9.00;99.90;;;;;;5116628;28;20479;-76
2021/12/18 01:32:41;;;;;;;48.57;30.20;;;9.00;99.90;;;;;;5117041;28;20536;-75
2021/12/18 01:35:09;;;;;;;48.07;30.37;;;9.00;99.90;;;;;;5116197;28;20453;-75
2021/12/18 01:37:36;;;;;;;49.50;29.57;;;9.00;99.90;;;;;;5116317;28;20439;-75
2021/12/18 01:40:04;;;;;;;47.13;27.70;;;9.00;99.90;;;;;;5116410;28;20776;-75
2021/12/18 01:45:20;;;;;;;49.20;29.93;;;9.00;99.90;;;;;;5093048;28;20989;-75
2021/12/18 01:53:19;;;;;;;51.53;27.57;;;9.00;99.90;;;;;;5115809;28;20808;-76
2021/12/18 01:55:49;;;;;;;45.90;25.77;;;9.00;99.90;;;;;;5116180;28;20450;-76
2021/12/18 01:58:19;;;;;;;47.70;28.10;;;9.00;99.90;;;;;;5116016;28;20454;-76
2021/12/18 02:00:49;;;;;;;44.73;26.97;;;9.00;99.90;;;;;;5116305;28;20845;-76
2021/12/18 02:03:16;;;;;;;46.27;28.57;;;9.00;99.90;;;;;;5115783;28;20462;-75
2021/12/18 02:05:42;;;;;;;45.07;28.20;;;9.00;99.90;;;;;;5115922;28;20442;-75
2021/12/18 02:08:10;;;;;;;42.83;25.40;;;9.00;99.90;;;;;;5115774;28;20447;-75
2021/12/18 02:10:45;;;;;;;41.93;25.80;;;9.10;99.90;;;;;;5115555;28;20936;-75
2021/12/18 02:13:24;;;;;;;49.10;26.77;;;9.10;99.90;;;;;;5115582;28;20476;-75
2021/12/18 02:21:27;;;;;;;39.87;26.87;;;9.10;99.90;;;;;;5115967;28;20399;-75
2021/12/18 02:23:54;;;;;;;44.87;26.63;;;9.10;99.90;;;;;;5116539;28;20924;-75
2021/12/18 02:26:22;;;;;;;45.90;28.10;;;9.10;99.90;;;;;;5115835;28;20439;-76
2021/12/18 02:28:50;;;;;;;46.53;26.67;;;9.10;99.90;;;;;;5115483;28;20470;-76
2021/12/18 02:31:17;;;;;;;42.27;25.63;;;9.10;99.90;;;;;;5115575;28;20451;-75
2021/12/18 02:33:45;;;;;;;43.37;26.63;;;9.10;99.90;;;;;;5115351;28;20450;-76
2021/12/18 02:36:20;;;;;;;46.27;24.30;;;9.10;99.90;;;;;;5115720;28;20450;-77
2021/12/18 02:39:02;;;;;;;45.50;25.47;;;9.10;99.90;;;;;;5115563;28;20522;-76
2021/12/18 02:41:35;;;;;;;51.03;27.77;;;9.10;99.90;;;;;;5115169;28;20825;-75
2021/12/18 02:44:05;;;;;;;44.00;23.43;;;9.20;99.90;;;;;;5115523;28;20442;-75
2021/12/18 02:46:32;;;;;;;51.80;28.07;;;9.20;99.90;;;;;;5114521;28;20470;-75
2021/12/18 02:49:05;;;;;;;46.37;25.20;;;9.20;99.90;;;;;;5115489;28;20470;-76
2021/12/18 02:51:32;;;;;;;45.53;25.53;;;9.20;99.90;;;;;;5115545;28;20471;-75
2021/12/18 02:54:00;;;;;;;47.03;26.57;;;9.20;99.90;;;;;;5115079;28;20447;-75
2021/12/18 02:56:26;;;;;;;45.57;23.37;;;9.20;99.90;;;;;;5115194;28;20458;-75
2021/12/18 02:58:58;;;;;;;44.50;24.93;;;9.20;99.90;;;;;;5114787;28;20466;-76
2021/12/18 03:01:27;;;;;;;46.83;24.60;;;9.20;99.90;;;;;;5115133;28;20443;-75
2021/12/18 03:03:56;;;;;;;44.67;24.00;;;9.20;99.90;;;;;;5115297;28;20449;-75
2021/12/18 03:06:29;;;;;;;43.07;23.40;;;9.20;99.90;;;;;;5115259;28;20439;-76
2021/12/18 03:09:14;;;;;;;41.87;23.10;;;9.20;99.90;;;;;;5115372;28;20463;-76
2021/12/18 03:20:57;;;;;;;44.63;24.07;;;9.20;99.90;;;;;;5115237;28;20407;-75
2021/12/18 03:25:55;;;;;;;43.17;23.53;;;9.20;99.90;;;;;;5114740;28;20472;-75
2021/12/18 03:28:23;;;;;;;45.80;24.23;;;9.20;99.90;;;;;;5114683;28;20431;-76
2021/12/18 03:30:50;;;;;;;48.93;24.17;;;9.20;99.90;;;;;;5115075;28;20494;-76
2021/12/18 03:33:16;;;;;;;49.63;24.67;;;9.30;99.90;;;;;;5115051;28;20467;-75
2021/12/18 03:35:44;;;;;;;42.50;24.07;;;9.30;99.90;;;;;;5115730;28;20447;-75
2021/12/18 03:38:11;;;;;;;46.43;24.07;;;9.30;99.90;;;;;;5114887;28;20454;-75
2021/12/18 03:40:38;;;;;;;54.30;26.07;;;9.30;99.90;;;;;;5115254;28;20442;-75
2021/12/18 03:43:05;;;;;;;46.97;24.97;;;9.30;99.90;;;;;;5114841;28;20496;-78
2021/12/18 03:45:33;;;;;;;50.47;25.00;;;9.30;99.90;;;;;;5115194;28;20446;-76
2021/12/18 03:48:00;;;;;;;43.70;23.93;;;9.30;99.90;;;;;;5115066;28;20454;-76
2021/12/18 03:50:27;;;;;;;47.87;24.13;;;9.40;99.90;;;;;;5114934;28;20844;-76
2021/12/18 03:52:55;;;;;;;42.93;23.10;;;9.40;99.90;;;;;;5115187;28;20459;-76
2021/12/18 03:55:22;;;;;;;50.00;24.63;;;9.40;99.90;;;;;;5114891;28;20442;-76
2021/12/18 03:57:49;;;;;;;46.77;23.70;;;9.40;99.90;;;;;;5114743;28;20828;-76
2021/12/18 04:00:17;;;;;;;41.93;21.87;;;9.40;99.90;;;;;;5118549;28;20451;-76
2021/12/18 04:02:46;;;;;;;46.43;24.47;;;9.30;99.90;;;;;;5118598;28;20463;-76
2021/12/18 04:05:14;;;;;;;48.67;25.03;;;9.30;99.90;;;;;;5125184;28;20450;-76
2021/12/18 04:07:43;;;;;;;47.20;23.23;;;9.30;99.90;;;;;;5127867;28;20446;-76
2021/12/18 04:10:12;;;;;;;40.27;21.43;;;9.30;99.90;;;;;;5118770;28;20511;-72
2021/12/18 04:12:39;;;;;;;44.97;26.13;;;9.30;99.90;;;;;;5117306;28;20474;-72
2021/12/18 04:15:07;;;;;;;45.60;24.93;;;9.40;99.90;;;;;;5117518;28;20810;-71
2021/12/18 04:17:34;;;;;;;48.73;24.37;;;9.40;99.90;;;;;;5117608;28;20503;-71
2021/12/18 04:20:02;;;;;;;49.77;24.37;;;9.40;99.90;;;;;;5117472;28;20457;-71
2021/12/18 04:22:28;;;;;;;46.67;22.53;;;9.40;99.90;;;;;;5117713;28;20458;-71
2021/12/18 04:24:55;;;;;;;45.40;22.50;;;9.40;99.90;;;;;;5118291;28;20459;-71
2021/12/18 04:27:22;;;;;;;48.47;23.90;;;9.40;99.90;;;;;;5117870;28;20929;-71
2021/12/18 04:29:48;;;;;;;43.20;22.60;;;9.40;99.90;;;;;;5117576;28;20474;-71
2021/12/18 04:32:15;;;;;;;46.00;22.77;;;9.40;99.90;;;;;;5117895;28;20470;-71
2021/12/18 04:34:42;;;;;;;43.90;22.87;;;9.40;99.90;;;;;;5117169;28;20434;-71
2021/12/18 04:37:10;;;;;;;39.87;22.97;;;9.40;99.90;;;;;;5116820;28;20451;-71
2021/12/18 04:39:37;;;;;;;49.03;22.80;;;9.40;99.90;;;;;;5116723;28;20434;-71
2021/12/18 04:42:04;;;;;;;47.17;24.20;;;9.40;99.90;;;;;;5116947;28;20473;-71
2021/12/18 04:44:31;;;;;;;44.13;22.47;;;9.40;99.90;;;;;;5116623;28;20454;-71
2021/12/18 04:46:57;;;;;;;49.17;23.50;;;9.40;99.90;;;;;;5116704;28;20500;-71
2021/12/18 04:49:24;;;;;;;42.43;21.30;;;9.40;99.90;;;;;;5116524;28;20478;-71
2021/12/18 04:51:51;;;;;;;39.83;21.07;;;9.40;99.90;;;;;;5116202;28;20463;-71
2021/12/18 04:54:19;;;;;;;46.63;22.33;;;9.40;99.90;;;;;;5116606;28;20795;-71
2021/12/18 04:56:46;;;;;;;42.50;22.93;;;9.40;99.90;;;;;;5116560;28;20443;-71
2021/12/18 04:59:13;;;;;;;40.73;21.80;;;9.50;99.90;;;;;;5116661;28;20459;-71
2021/12/18 05:01:40;;;;;;;38.70;20.67;;;9.50;99.90;;;;;;5115980;28;20988;-71
2021/12/18 05:04:09;;;;;;;38.70;22.13;;;9.50;99.90;;;;;;5116257;28;20541;-71
2021/12/18 05:06:38;;;;;;;40.13;21.43;;;9.40;99.90;;;;;;5116273;28;20450;-71
2021/12/18 05:09:05;;;;;;;34.13;19.90;;;9.40;99.90;;;;;;5115896;27;20470;-71
2021/12/18 05:11:33;;;;;;;39.07;20.27;;;9.50;99.90;;;;;;5116078;28;20467;-71
2021/12/18 05:14:00;;;;;;;37.90;21.13;;;9.40;99.90;;;;;;5116149;28;20434;-71
2021/12/18 05:16:27;;;;;;;41.73;21.10;;;9.40;99.90;;;;;;5116015;28;20458;-71
2021/12/18 05:18:54;;;;;;;38.43;20.00;;;9.50;99.90;;;;;;5115644;28;20989;-71
2021/12/18 05:21:21;;;;;;;34.67;17.83;;;9.50;99.90;;;;;;5115818;28;20817;-72
2021/12/18 05:23:48;;;;;;;32.83;19.33;;;9.40;99.90;;;;;;5116226;28;20439;-71
2021/12/18 05:26:15;;;;;;;29.57;17.73;;;9.40;99.90;;;;;;5115871;27;20500;-71
2021/12/18 05:28:43;;;;;;;31.23;17.40;;;9.40;99.90;;;;;;5115784;28;20816;-71
2021/12/18 05:31:12;;;;;;;36.73;19.70;;;9.40;99.90;;;;;;5115841;28;20489;-72
2021/12/18 05:33:39;;;;;;;34.90;19.10;;;9.40;99.90;;;;;;5115958;28;20451;-71
2021/12/18 05:36:24;;;;;;;39.53;19.70;;;9.50;99.90;;;;;;5116321;28;20447;-71
2021/12/18 05:38:51;;;;;;;33.53;18.87;;;9.50;99.90;;;;;;5115877;28;20463;-71
2021/12/18 05:41:18;;;;;;;30.83;18.53;;;9.50;99.90;;;;;;5115804;28;20442;-72
2021/12/18 05:43:46;;;;;;;40.30;21.63;;;9.40;99.90;;;;;;5115533;28;20450;-71
2021/12/18 05:46:12;;;;;;;38.73;19.10;;;9.40;99.90;;;;;;5115528;28;20455;-71
2021/12/18 05:48:39;;;;;;;39.70;20.27;;;9.40;99.90;;;;;;5115567;28;20423;-71
2021/12/18 05:51:06;;;;;;;34.40;18.60;;;9.40;99.90;;;;;;5115371;28;20482;-71
2021/12/18 05:53:33;;;;;;;33.90;18.87;;;9.40;99.90;;;;;;5115243;28;20500;-71
2021/12/18 05:55:59;;;;;;;36.90;18.30;;;9.40;99.90;;;;;;5115247;28;20488;-71
2021/12/18 05:58:26;;;;;;;36.60;18.90;;;9.40;99.90;;;;;;5115229;28;20471;-71
2021/12/18 06:00:54;;;;;;;38.63;19.03;;;9.40;99.90;;;;;;5115146;28;20439;-71
2021/12/18 06:03:21;;;;;;;33.83;19.07;;;9.40;99.90;;;;;;5115073;28;20471;-71
2021/12/18 06:05:47;;;;;;;32.10;18.80;;;9.40;99.90;;;;;;5114787;27;20438;-71
2021/12/18 06:08:14;;;;;;;32.83;17.97;;;9.40;99.90;;;;;;5115286;28;20446;-71
2021/12/18 06:10:41;;;;;;;32.63;18.13;;;9.40;99.90;;;;;;5114941;28;20483;-71
2021/12/18 06:13:08;;;;;;;36.13;18.20;;;9.40;99.90;;;;;;5114627;28;20474;-71
2021/12/18 06:15:35;;;;;;;30.67;18.57;;;9.40;99.90;;;;;;5114778;28;20447;-71
2021/12/18 06:18:03;;;;;;;34.57;17.80;;;9.40;99.90;;;;;;5114536;28;20936;-71
2021/12/18 06:20:30;;;;;;;34.80;16.90;;;9.40;99.90;;;;;;5114284;28;20445;-71
2021/12/18 06:22:57;;;;;;;36.03;17.83;;;9.40;99.90;;;;;;5114407;28;20972;-71
2021/12/18 06:25:24;;;;;;;35.93;17.87;;;9.40;99.90;;;;;;5114643;28;20483;-71
2021/12/18 06:27:51;;;;;;;35.23;18.60;;;9.40;99.90;;;;;;5114676;27;20435;-71
2021/12/18 06:30:19;;;;;;;34.73;18.40;;;9.40;99.90;;;;;;5114143;28;20999;-71
2021/12/18 06:32:46;;;;;;;41.17;19.33;;;9.40;99.90;;;;;;5114396;28;20466;-71
2021/12/18 06:35:14;;;;;;;35.30;18.13;;;9.40;99.90;;;;;;5114457;28;20493;-71
2021/12/18 06:37:41;;;;;;;34.60;19.20;;;9.40;99.90;;;;;;5114395;28;20476;-71
2021/12/18 06:40:09;;;;;;;33.37;17.53;;;9.40;99.90;;;;;;5114470;28;20423;-71
2021/12/18 06:42:36;;;;;;;40.93;19.90;;;9.40;99.90;;;;;;5114326;28;20471;-71
2021/12/18 06:45:03;;;;;;;31.27;17.37;;;9.40;99.90;;;;;;5114348;28;20438;-71
2021/12/18 06:47:30;;;;;;;34.10;18.03;;;9.40;99.90;;;;;;5114301;28;20443;-71
2021/12/18 06:49:57;;;;;;;31.50;17.80;;;9.40;99.90;;;;;;5114035;28;20475;-71
2021/12/18 06:52:25;;;;;;;33.63;17.60;;;9.40;99.90;;;;;;5114093;28;20467;-71
2021/12/18 06:54:51;;;;;;;32.37;17.50;;;9.50;99.90;;;;;;5114137;28;20439;-71
2021/12/18 06:57:22;;;;;;;37.57;18.37;;;9.40;99.90;;;;;;5114162;28;20443;-70
2021/12/18 06:59:49;;;;;;;32.67;17.17;;;9.40;99.90;;;;;;5113660;28;20978;-70
2021/12/18 07:02:16;;;;;;;34.40;16.60;;;9.40;99.90;;;;;;5113735;28;20984;-71
2021/12/18 07:04:43;;;;;;;40.50;18.50;;;9.40;99.90;;;;;;5114491;28;20446;-70
2021/12/18 07:07:09;;;;;;;37.07;18.03;;;9.50;99.90;;;;;;5113753;28;20447;-70
2021/12/18 07:09:37;;;;;;;34.93;18.73;;;9.40;99.90;;;;;;5113788;28;20443;-70
2021/12/18 07:12:05;;;;;;;37.53;17.20;;;9.50;99.90;;;;;;5113582;28;20483;-70
2021/12/18 07:14:31;;;;;;;35.60;18.53;;;9.50;99.90;;;;;;5113517;28;20446;-70
2021/12/18 07:16:58;;;;;;;40.67;17.87;;;9.50;99.90;;;;;;5113707;28;20446;-70
2021/12/18 07:19:26;;;;;;;37.73;19.00;;;9.50;99.90;;;;;;5113889;28;20447;-70
2021/12/18 07:21:52;;;;;;;41.97;19.40;;;9.50;99.90;;;;;;5113837;28;20467;-71
2021/12/18 07:24:19;;;;;;;37.13;18.90;;;9.40;99.90;;;;;;5113607;28;20924;-70
2021/12/18 07:26:47;;;;;;;48.27;20.77;;;9.50;99.90;;;;;;5113849;28;20442;-70
2021/12/18 07:29:14;;;;;;;31.03;18.83;;;9.50;99.90;;;;;;5113565;28;20918;-70
2021/12/18 07:31:41;;;;;;;37.83;20.83;;;9.40;99.90;;;;;;5113647;28;20475;-70
2021/12/18 07:34:08;;;;;;;39.43;18.43;;;9.40;99.90;;;;;;5117760;28;20447;-70
2021/12/18 07:36:35;;;;;;;37.93;18.87;;;9.50;99.90;;;;;;5117724;28;20897;-70
2021/12/18 07:39:02;;;;;;;34.03;17.07;;;9.40;99.90;;;;;;5117642;28;20975;-70
2021/12/18 07:41:29;;;;;;;37.40;20.27;;;9.50;99.90;;;;;;5117841;28;20444;-70
2021/12/18 07:43:57;;;;;;;46.37;18.77;;;9.50;99.90;;;;;;5117833;28;20451;-70
2021/12/18 07:46:24;;;;;;;41.70;19.57;;;9.50;99.90;;;;;;5117749;28;20503;-70
2021/12/18 07:48:51;;;;;;;40.57;20.10;;;9.40;99.90;;;;;;5117855;28;20465;-70
2021/12/18 07:51:18;;;;;;;40.77;21.47;;;9.40;99.90;;;;;;5118127;28;20486;-71
2021/12/18 07:53:44;;;;;;;36.50;19.90;;;9.50;99.90;;;;;;5117779;28;20782;-70
2021/12/18 07:56:11;;;;;;;48.47;23.33;;;9.40;99.90;;;;;;5117463;28;20453;-70
2021/12/18 07:58:39;;;;;;;50.40;21.27;;;9.40;99.90;;;;;;5117322;28;20462;-70
2021/12/18 08:01:07;;;;;;;45.77;23.20;;;9.40;99.90;;;;;;5117563;28;20438;-70
2021/12/18 08:03:34;;;;;;;44.73;22.37;;;9.40;99.90;;;;;;5117398;28;20458;-70
2021/12/18 08:06:01;;;;;;;47.33;22.87;;;9.40;99.90;;;;;;5117351;28;20446;-70
2021/12/18 08:08:42;;;;;;;44.47;23.17;;;9.40;99.90;;;;;;5117037;27;20932;-70
2021/12/18 08:14:32;;;;;;;53.93;26.50;;;9.30;99.90;;;;;;5116444;28;20481;-69
2021/12/18 08:17:00;;;;;;;49.17;26.10;;;9.30;99.90;;;;;;5117195;28;20443;-69
2021/12/18 08:19:26;;;;;;;51.20;23.93;;;9.30;99.90;;;;;;5117204;28;20439;-69
2021/12/18 08:22:41;;;;;;;51.50;26.90;;;9.30;99.90;;;;;;5117085;28;20529;-70
2021/12/18 08:25:09;;;;;;;51.90;26.37;;;9.30;99.90;;;;;;5116700;28;20777;-70
2021/12/18 08:27:36;;;;;;;59.40;29.50;;;9.30;99.90;;;;;;5116927;28;20445;-69
2021/12/18 08:30:04;;;;;;;55.93;29.00;;;9.30;99.90;;;;;;5117107;28;20781;-70
2021/12/18 08:32:32;;;;;;;54.20;29.57;;;9.30;99.90;;;;;;5116860;28;20494;-67
2021/12/18 08:34:59;;;;;;;52.10;30.00;;;9.30;99.90;;;;;;5116826;28;20454;-67
2021/12/18 08:37:26;;;;;;;58.33;32.03;;;9.30;99.90;;;;;;5117237;28;20450;-67
2021/12/18 08:39:53;;;;;;;61.27;30.53;;;9.30;99.90;;;;;;5116677;28;20447;-68
2021/12/18 08:42:19;;;;;;;64.70;32.47;;;9.20;99.90;;;;;;5116663;27;20482;-69
2021/12/18 08:44:46;;;;;;;59.93;32.73;;;9.30;99.90;;;;;;5115440;28;20450;-69
2021/12/18 08:47:14;;;;;;;57.03;30.47;;;9.30;99.90;;;;;;5116578;28;20450;-69
2021/12/18 08:49:42;;;;;;;65.60;32.37;;;9.30;99.90;;;;;;5116279;28;20469;-68
2021/12/18 08:52:09;;;;;;;60.90;35.37;;;9.30;99.90;;;;;;5116250;28;20552;-68
2021/12/18 08:54:36;;;;;;;57.27;32.70;;;9.30;99.90;;;;;;5116455;28;20442;-68
2021/12/18 08:57:03;;;;;;;56.77;31.57;;;9.30;99.90;;;;;;5116427;28;20447;-68
2021/12/18 08:59:29;;;;;;;60.63;28.90;;;9.40;99.90;;;;;;5116081;28;20926;-69
2021/12/18 09:01:56;;;;;;;46.43;27.40;;;9.40;99.90;;;;;;5116768;28;20463;-69
2021/12/18 09:04:23;;;;;;;43.13;26.23;;;9.40;99.90;;;;;;5117194;28;20458;-70
2021/12/18 09:06:51;;;;;;;50.07;28.83;;;9.40;99.90;;;;;;5116135;28;20951;-69
2021/12/18 09:09:18;;;;;;;52.47;29.07;;;9.50;99.90;;;;;;5116495;28;20963;-69
2021/12/18 09:11:44;;;;;;;52.83;28.60;;;9.40;99.90;;;;;;5116128;28;20486;-69
2021/12/18 09:14:11;;;;;;;45.53;26.00;;;9.50;99.90;;;;;;5116355;27;20439;-69
2021/12/18 09:16:38;;;;;;;49.90;27.60;;;9.50;99.90;;;;;;5116377;28;20436;-68
2021/12/18 09:19:05;;;;;;;50.83;26.80;;;9.50;99.90;;;;;;5115961;27;20434;-69
2021/12/18 09:21:32;;;;;;;48.77;29.13;;;9.50;99.90;;;;;;5115498;28;20459;-69
2021/12/18 09:24:00;;;;;;;54.23;30.13;;;9.50;99.90;;;;;;5115978;28;20432;-68
2021/12/18 09:26:26;;;;;;;54.80;29.60;;;9.60;99.90;;;;;;5115814;27;20449;-68
2021/12/18 09:28:53;;;;;;;53.53;27.27;;;9.60;99.90;;;;;;5115822;28;20450;-70
2021/12/18 09:31:20;;;;;;;53.47;28.70;;;9.60;99.90;;;;;;5115608;28;20490;-68
2021/12/18 09:33:47;;;;;;;57.13;29.40;;;9.70;99.90;;;;;;5115387;28;20955;-68
2021/12/18 09:36:13;;;;;;;56.00;28.50;;;9.70;99.90;;;;;;5115692;28;20443;-70
2021/12/18 09:38:40;;;;;;;61.33;26.60;;;9.70;99.90;;;;;;5115601;27;20447;-68
2021/12/18 09:41:08;;;;;;;53.90;28.10;;;9.70;99.90;;;;;;5115516;27;20447;-68
2021/12/18 09:43:36;;;;;;;60.00;29.03;;;9.70;99.90;;;;;;5115388;28;20467;-68
2021/12/18 09:46:05;;;;;;;61.97;28.67;;;9.70;99.90;;;;;;5115429;28;20443;-68
2021/12/18 09:48:32;;;;;;;59.33;27.87;;;9.70;99.90;;;;;;5115533;28;20443;-68
2021/12/18 09:50:59;;;;;;;67.57;31.57;;;9.70;99.90;;;;;;5115445;28;20491;-68
2021/12/18 09:53:26;;;;;;;59.93;28.17;;;9.60;99.90;;;;;;5114907;28;20467;-68
2021/12/18 09:55:53;;;;;;;60.07;27.87;;;9.60;99.90;;;;;;5115221;28;20450;-68
2021/12/18 09:58:22;;;;;;;57.23;28.70;;;9.60;99.90;;;;;;5115152;28;20463;-68
2021/12/18 10:00:49;;;;;;;64.00;30.17;;;9.70;99.90;;;;;;5114961;28;20940;-68
2021/12/18 10:03:15;;;;;;;57.07;27.17;;;9.60;99.90;;;;;;5115108;28;20467;-68
2021/12/18 10:05:42;;;;;;;53.93;25.70;;;9.60;99.90;;;;;;5115168;28;20446;-68
2021/12/18 10:08:15;;;;;;;46.50;24.33;;;9.60;99.90;;;;;;5114995;28;20443;-68
2021/12/18 10:11:01;;;;;;;51.43;25.10;;;9.60;99.90;;;;;;5114872;28;20496;-68
2021/12/18 10:13:29;;;;;;;57.70;26.60;;;9.60;99.90;;;;;;5114609;28;20470;-68
2021/12/18 10:16:09;;;;;;;56.80;25.87;;;9.60;99.90;;;;;;5115099;28;20807;-68
2021/12/18 10:18:36;;;;;;;47.80;24.43;;;9.70;99.90;;;;;;5114794;28;20446;-70
2021/12/18 10:21:10;;;;;;;49.27;23.07;;;9.70;99.90;;;;;;5114863;28;20420;-68
2021/12/18 10:23:37;;;;;;;43.13;23.00;;;9.70;99.90;;;;;;5114841;28;20442;-68
2021/12/18 10:26:04;;;;;;;46.53;23.67;;;9.70;99.90;;;;;;5114365;28;20971;-67
2021/12/18 10:28:46;;;;;;;49.13;24.07;;;9.70;99.90;;;;;;5114690;28;20439;-67
2021/12/18 10:31:14;;;;;;;51.00;23.60;;;9.70;99.90;;;;;;5114710;28;20470;-68
2021/12/18 10:33:41;;;;;;;44.47;22.23;;;9.70;99.90;;;;;;5114600;28;20443;-67
2021/12/18 10:36:15;;;;;;;39.83;22.70;;;9.80;99.90;;;;;;5114253;28;20450;-68
2021/12/18 10:38:45;;;;;;;46.23;22.37;;;9.80;99.90;;;;;;5115350;28;20479;-68
2021/12/18 10:41:28;;;;;;;48.27;22.83;;;9.80;99.90;;;;;;5115280;28;20470;-69
2021/12/18 10:44:02;;;;;;;54.67;25.37;;;9.80;99.90;;;;;;5114430;28;20434;-68
2021/12/18 10:46:30;;;;;;;45.50;22.00;;;9.80;99.90;;;;;;5114104;28;20944;-66
2021/12/18 10:48:59;;;;;;;46.10;23.17;;;9.80;99.90;;;;;;5114066;28;20928;-68
2021/12/18 10:51:27;;;;;;;59.50;26.47;;;9.80;99.90;;;;;;5114166;28;20474;-68
2021/12/18 10:54:00;;;;;;;48.20;23.83;;;9.80;99.90;;;;;;5114390;28;20439;-67
2021/12/18 10:56:34;;;;;;;53.50;24.83;;;9.70;99.90;;;;;;5114477;28;20423;-68
2021/12/18 10:59:03;;;;;;;54.90;25.07;;;9.70;99.90;;;;;;5114305;28;20978;-67
2021/12/18 11:01:30;;;;;;;54.17;25.80;;;9.60;99.90;;;;;;5113872;28;20443;-68
2021/12/18 11:03:57;;;;;;;55.33;25.73;;;9.60;99.90;;;;;;5114093;28;20475;-67
2021/12/18 11:06:24;;;;;;;47.93;23.30;;;9.70;99.90;;;;;;5114439;28;20446;-67
2021/12/18 11:09:00;;;;;;;43.57;22.40;;;9.70;99.90;;;;;;5113649;28;20443;-67
2021/12/18 11:14:16;;;;;;;44.97;21.70;;;9.80;99.90;;;;;;5114331;28;20398;-68
2021/12/18 11:16:45;;;;;;;43.53;22.90;;;9.80;99.90;;;;;;5113951;28;20832;-68
2021/12/18 11:19:14;;;;;;;46.43;21.80;;;9.80;99.90;;;;;;5114520;28;20575;-68
2021/12/18 11:21:43;;;;;;;37.57;22.33;;;9.80;99.90;;;;;;5114333;28;20459;-69
2021/12/18 11:24:11;;;;;;;42.53;21.67;;;9.90;99.90;;;;;;5114791;28;20510;-69
2021/12/18 11:26:41;;;;;;;50.47;23.43;;;9.90;99.90;;;;;;5113878;28;20913;-68
2021/12/18 11:29:13;;;;;;;37.73;18.60;;;9.90;99.90;;;;;;5113934;28;20480;-68
2021/12/18 11:31:42;;;;;;;43.73;24.67;;;9.90;99.90;;;;;;5113920;28;20540;-69
2021/12/18 11:34:10;;;;;;;46.20;24.50;;;9.90;99.90;;;;;;5113895;28;20427;-69
2021/12/18 11:36:40;;;;;;;44.30;24.97;;;10.00;99.90;;;;;;5114705;28;20435;-69
2021/12/18 11:39:08;;;;;;;44.50;23.60;;;10.00;99.90;;;;;;5113810;28;20432;-70
2021/12/18 11:41:35;;;;;;;51.80;24.53;;;10.00;99.90;;;;;;5113692;28;20471;-73
2021/12/18 11:44:03;;;;;;;44.83;23.47;;;10.00;99.90;;;;;;5113732;28;20454;-69
2021/12/18 11:46:33;;;;;;;48.73;22.80;;;10.00;99.90;;;;;;5114267;28;20445;-72
2021/12/18 11:49:03;;;;;;;39.50;21.23;;;10.10;99.90;;;;;;5114249;28;20526;-68
2021/12/18 11:51:30;;;;;;;42.57;21.47;;;10.10;99.90;;;;;;5113889;28;20431;-68
2021/12/18 11:53:58;;;;;;;42.07;20.60;;;10.10;99.90;;;;;;5113633;28;20447;-68
2021/12/18 11:56:25;;;;;;;36.70;19.70;;;10.10;99.90;;;;;;5113891;28;20427;-69
2021/12/18 11:58:53;;;;;;;40.67;21.20;;;10.20;99.90;;;;;;5113358;28;20565;-67
2021/12/18 12:01:24;;;;;;;34.93;19.07;;;10.20;99.90;;;;;;5113504;28;20443;-68
2021/12/18 12:03:58;;;;;;;37.10;18.67;;;10.20;99.90;;;;;;5114109;28;20515;-68
2021/12/18 12:06:30;;;;;;;37.57;17.17;;;10.20;99.90;;;;;;5113784;28;20427;-69
2021/12/18 12:09:28;;;;;;;34.30;17.20;;;10.20;99.90;;;;;;5113156;28;20427;-69
2021/12/18 12:11:58;;;;;;;42.90;18.63;;;10.10;99.90;;;;;;5113356;28;20571;-69
2021/12/18 12:14:26;;;;;;;33.67;17.87;;;10.10;99.90;;;;;;5113451;28;20450;-69
2021/12/18 12:17:09;;;;;;;45.43;21.50;;;10.10;99.90;;;;;;5113663;28;20458;-69
2021/12/18 12:20:02;;;;;;;46.57;23.00;;;10.10;99.90;;;;;;5114628;28;20430;-68
2021/12/18 12:23:09;;;;;;;43.63;20.00;;;10.00;99.90;;;;;;5117547;28;20465;-67
2021/12/18 12:26:07;;;;;;;43.40;20.93;;;9.90;99.90;;;;;;5116709;28;20429;-70
2021/12/18 12:28:59;;;;;;;47.60;20.33;;;9.90;99.90;;;;;;5116702;28;20946;-69
2021/12/18 12:31:27;;;;;;;45.77;22.27;;;9.80;99.90;;;;;;5116750;28;20430;-69
2021/12/18 12:34:22;;;;;;;55.87;25.77;;;9.80;99.90;;;;;;5116809;28;20442;-65
2021/12/18 12:36:49;;;;;;;45.93;23.63;;;9.80;99.90;;;;;;5117019;28;20470;-69
2021/12/18 12:39:17;;;;;;;51.47;22.97;;;9.80;99.90;;;;;;5116810;28;20432;-70
2021/12/18 12:41:51;;;;;;;44.90;20.33;;;9.70;99.90;;;;;;5116662;28;20858;-66
2021/12/18 12:44:48;;;;;;;43.87;21.03;;;9.70;99.90;;;;;;5116701;28;20504;-67
2021/12/18 12:47:16;;;;;;;49.83;21.60;;;9.60;99.90;;;;;;5116691;28;20447;-67
2021/12/18 12:49:47;;;;;;;43.53;21.63;;;9.60;99.90;;;;;;5116269;28;20963;-67
2021/12/18 12:52:15;;;;;;;47.27;21.93;;;9.50;99.90;;;;;;5116409;27;20556;-67
2021/12/18 12:55:08;;;;;;;41.47;19.70;;;9.50;99.90;;;;;;5116480;28;20451;-67
2021/12/18 12:57:37;;;;;;;43.83;20.13;;;9.40;99.90;;;;;;5116467;28;20514;-68
2021/12/18 13:00:34;;;;;;;45.37;21.70;;;9.40;99.90;;;;;;5116326;28;20466;-68
2021/12/18 13:03:06;;;;;;;40.93;20.33;;;9.40;99.90;;;;;;5116302;28;20462;-69
2021/12/18 13:05:46;;;;;;;46.50;20.53;;;9.40;99.90;;;;;;5116438;28;20813;-69
2021/12/18 13:08:14;;;;;;;42.90;19.07;;;9.40;99.90;;;;;;5116339;27;20616;-68
2021/12/18 13:10:42;;;;;;;44.23;19.33;;;9.50;99.90;;;;;;5116187;28;20446;-68
2021/12/18 13:13:11;;;;;;;50.17;23.57;;;9.50;99.90;;;;;;5115839;28;20832;-68
2021/12/18 13:15:54;;;;;;;43.57;22.13;;;9.50;99.90;;;;;;5116172;28;20845;-69
2021/12/18 13:18:25;;;;;;;47.13;20.00;;;9.50;99.90;;;;;;5114042;28;20458;-69
2021/12/18 13:20:56;;;;;;;43.77;20.13;;;9.60;99.90;;;;;;5116049;27;20439;-68
2021/12/18 13:23:36;;;;;;;42.70;20.13;;;9.60;99.90;;;;;;5115621;28;20455;-68
2021/12/18 13:26:05;;;;;;;47.00;21.17;;;9.70;99.90;;;;;;5115946;28;20423;-68